Time;durP1;ratioP1;P1;durP2;ratioP2;P2;SDS_P1;SDS_P2;PMS_P1;PMS_P2;Temp;Humidity;BMP_temperature;BMP_pressure;BME280_temperature;BME280_humidity;BME280_pressure;Samples;Min_cycle;Max_cycle;Signal;HPM_P1;HPM_P2
2021/11/13 00:01:20;;;;;;;6.45;3.40;;;;;;;;;;4937552;29;20074;-75
2021/11/13 00:03:46;;;;;;;7.45;4.20;;;;;;;;;;4937541;29;20111;-75
2021/11/13 00:06:13;;;;;;;5.40;3.17;;;;;;;;;;4924567;29;20039;-77
2021/11/13 00:08:39;;;;;;;4.68;3.30;;;;;;;;;;4931594;29;20032;-76
2021/11/13 00:11:05;;;;;;;4.45;3.30;;;;;;;;;;4920076;29;20038;-76
2021/11/13 00:13:31;;;;;;;9.60;3.78;;;;;;;;;;4936597;29;20130;-76
2021/11/13 00:15:58;;;;;;;5.35;3.17;;;;;;;;;;4920231;29;20440;-75
2021/11/13 00:18:24;;;;;;;6.85;3.28;;;;;;;;;;4919696;29;20535;-75
2021/11/13 00:20:50;;;;;;;5.93;3.47;;;;;;;;;;4937058;29;20023;-74
2021/11/13 00:23:18;;;;;;;5.65;3.35;;;;;;;;;;4935201;29;20443;-75
2021/11/13 00:25:44;;;;;;;3.78;2.80;;;;;;;;;;4926864;29;20134;-76
2021/11/13 00:28:10;;;;;;;7.28;3.58;;;;;;;;;;4936562;29;20031;-76
2021/11/13 00:30:38;;;;;;;3.88;2.90;;;;;;;;;;4922164;29;20032;-74
2021/11/13 00:33:04;;;;;;;7.22;3.20;;;;;;;;;;4903093;29;20032;-74
2021/11/13 00:35:31;;;;;;;6.07;2.88;;;;;;;;;;4924127;29;20436;-75
2021/11/13 00:37:57;;;;;;;4.15;2.92;;;;;;;;;;4924519;29;20443;-75
2021/11/13 00:40:23;;;;;;;3.90;2.70;;;;;;;;;;4917783;29;20503;-75
2021/11/13 00:42:49;;;;;;;7.20;3.05;;;;;;;;;;4917744;29;20028;-75
2021/11/13 00:45:15;;;;;;;5.93;2.70;;;;;;;;;;4926403;29;20046;-76
2021/11/13 00:47:41;;;;;;;5.78;3.45;;;;;;;;;;4925079;29;20502;-75
2021/11/13 00:50:10;;;;;;;8.25;3.20;;;;;;;;;;4936445;29;20024;-76
2021/11/13 00:52:36;;;;;;;5.30;3.08;;;;;;;;;;4919803;29;20387;-74
2021/11/13 00:55:05;;;;;;;5.35;3.05;;;;;;;;;;4936236;29;20032;-75
2021/11/13 00:57:32;;;;;;;3.90;3.00;;;;;;;;;;4936386;29;20036;-75
2021/11/13 00:59:58;;;;;;;7.85;3.50;;;;;;;;;;4919132;29;20475;-75
2021/11/13 01:02:24;;;;;;;6.30;3.20;;;;;;;;;;4936334;29;20024;-75
2021/11/13 01:04:50;;;;;;;8.68;3.00;;;;;;;;;;4936110;29;20036;-75
2021/11/13 01:07:16;;;;;;;3.97;2.70;;;;;;;;;;4936169;29;20109;-76
2021/11/13 01:09:42;;;;;;;4.85;2.90;;;;;;;;;;4927383;29;20083;-75
2021/11/13 01:12:08;;;;;;;3.83;2.75;;;;;;;;;;4932488;29;20483;-74
2021/11/13 01:14:40;;;;;;;4.70;2.92;;;;;;;;;;4933230;29;20032;-75
2021/11/13 01:17:07;;;;;;;4.13;2.67;;;;;;;;;;4917133;29;20495;-75
2021/11/13 01:19:33;;;;;;;2.95;2.65;;;;;;;;;;4925450;29;20023;-74
2021/11/13 01:21:59;;;;;;;5.53;2.45;;;;;;;;;;4936100;29;20059;-75
2021/11/13 01:24:26;;;;;;;4.72;2.60;;;;;;;;;;4932033;29;20032;-76
2021/11/13 01:26:52;;;;;;;7.65;2.72;;;;;;;;;;4926310;29;20035;-76
2021/11/13 01:29:18;;;;;;;3.67;2.05;;;;;;;;;;4935771;29;20498;-75
2021/11/13 01:31:44;;;;;;;7.20;2.28;;;;;;;;;;4919795;29;20060;-75
2021/11/13 01:34:10;;;;;;;3.85;2.20;;;;;;;;;;4916661;29;20024;-74
2021/11/13 01:36:36;;;;;;;3.53;2.42;;;;;;;;;;4924644;29;20027;-76
2021/11/13 01:39:03;;;;;;;3.28;2.40;;;;;;;;;;4905847;29;20028;-74
2021/11/13 01:41:29;;;;;;;4.25;2.40;;;;;;;;;;4936220;29;20035;-73
2021/11/13 01:43:55;;;;;;;4.78;3.03;;;;;;;;;;4935610;29;20027;-75
2021/11/13 01:46:22;;;;;;;2.65;2.20;;;;;;;;;;4935540;29;20034;-75
2021/11/13 01:48:48;;;;;;;5.22;2.30;;;;;;;;;;4935194;29;20032;-75
2021/11/13 01:51:20;;;;;;;4.22;2.38;;;;;;;;;;4931360;29;20039;-75
2021/11/13 01:53:47;;;;;;;4.95;2.30;;;;;;;;;;4916519;29;20103;-75
2021/11/13 01:56:17;;;;;;;3.53;2.25;;;;;;;;;;4916949;29;20072;-75
2021/11/13 01:58:44;;;;;;;4.13;2.10;;;;;;;;;;4926254;29;20024;-75
2021/11/13 02:01:10;;;;;;;3.13;2.33;;;;;;;;;;4927053;29;20024;-76
2021/11/13 02:03:37;;;;;;;4.35;3.08;;;;;;;;;;4916445;29;20100;-74
2021/11/13 02:06:03;;;;;;;3.88;2.17;;;;;;;;;;4929791;29;20040;-74
2021/11/13 02:08:29;;;;;;;3.47;2.47;;;;;;;;;;4918273;29;20383;-74
2021/11/13 02:10:55;;;;;;;3.75;2.50;;;;;;;;;;4935649;29;20066;-75
2021/11/13 02:13:21;;;;;;;4.28;2.50;;;;;;;;;;4935275;29;20023;-75
2021/11/13 02:15:47;;;;;;;4.22;2.45;;;;;;;;;;4935282;29;20083;-74
2021/11/13 02:18:13;;;;;;;3.08;2.20;;;;;;;;;;4935358;29;20067;-74
2021/11/13 02:20:41;;;;;;;3.63;2.20;;;;;;;;;;4922837;29;20028;-74
2021/11/13 02:23:10;;;;;;;6.50;2.58;;;;;;;;;;4916242;29;20024;-74
2021/11/13 02:25:36;;;;;;;4.65;2.25;;;;;;;;;;4930897;29;20028;-76
2021/11/13 02:28:03;;;;;;;4.30;2.17;;;;;;;;;;4916527;29;20050;-76
2021/11/13 02:30:29;;;;;;;4.95;1.80;;;;;;;;;;4923122;29;20028;-75
2021/11/13 02:32:56;;;;;;;3.05;2.03;;;;;;;;;;4935607;29;20102;-73
2021/11/13 02:35:23;;;;;;;3.22;1.88;;;;;;;;;;4934870;29;20149;-75
2021/11/13 02:37:49;;;;;;;2.30;1.60;;;;;;;;;;4938719;29;20106;-74
2021/11/13 02:40:16;;;;;;;1.67;1.45;;;;;;;;;;4938668;29;20031;-74
2021/11/13 02:42:42;;;;;;;1.40;1.25;;;;;;;;;;4926653;29;20028;-74
2021/11/13 02:45:11;;;;;;;1.33;1.20;;;;;;;;;;4938970;29;20031;-74
2021/11/13 02:47:39;;;;;;;1.85;1.45;;;;;;;;;;4938170;29;20036;-75
2021/11/13 02:50:06;;;;;;;2.00;1.40;;;;;;;;;;4938887;29;20035;-74
2021/11/13 02:53:04;;;;;;;1.20;1.10;;;;;;;;;;4921736;29;20391;-74
2021/11/13 02:55:30;;;;;;;2.08;1.10;;;;;;;;;;4874748;29;20052;-75
2021/11/13 02:57:57;;;;;;;1.25;1.15;;;;;;;;;;4934782;29;20032;-74
2021/11/13 03:00:25;;;;;;;1.48;1.38;;;;;;;;;;4935782;29;20028;-76
2021/11/13 03:02:51;;;;;;;1.33;1.13;;;;;;;;;;4931420;29;20088;-75
2021/11/13 03:05:25;;;;;;;0.98;0.98;;;;;;;;;;4921135;29;20107;-76
2021/11/13 03:07:53;;;;;;;0.93;0.93;;;;;;;;;;4902684;29;20115;-75
2021/11/13 03:10:20;;;;;;;2.20;1.30;;;;;;;;;;4932903;29;20396;-75
2021/11/13 03:12:46;;;;;;;1.02;1.02;;;;;;;;;;4937844;29;20055;-77
2021/11/13 03:15:14;;;;;;;3.25;1.20;;;;;;;;;;4931829;29;20106;-75
2021/11/13 03:17:40;;;;;;;1.50;1.13;;;;;;;;;;4936311;29;20051;-74
2021/11/13 03:20:07;;;;;;;4.95;1.30;;;;;;;;;;4919213;29;20032;-75
2021/11/13 03:22:36;;;;;;;1.30;1.23;;;;;;;;;;4926972;29;20024;-74
2021/11/13 03:25:02;;;;;;;2.15;1.27;;;;;;;;;;4937299;29;20095;-75
2021/11/13 03:27:30;;;;;;;1.98;1.33;;;;;;;;;;4920977;29;20562;-74
2021/11/13 03:29:56;;;;;;;3.80;1.20;;;;;;;;;;4938038;29;20119;-75
2021/11/13 03:32:22;;;;;;;1.40;1.15;;;;;;;;;;4938028;29;20387;-75
2021/11/13 03:34:48;;;;;;;2.45;2.17;;;;;;;;;;4938095;29;20042;-74
2021/11/13 03:37:15;;;;;;;4.22;1.50;;;;;;;;;;4924272;29;20064;-75
2021/11/13 03:39:41;;;;;;;2.30;1.75;;;;;;;;;;4930055;29;20038;-74
2021/11/13 03:42:07;;;;;;;2.30;1.58;;;;;;;;;;4919172;29;20036;-74
2021/11/13 03:44:33;;;;;;;5.90;1.92;;;;;;;;;;4928006;29;20087;-75
2021/11/13 03:46:59;;;;;;;2.20;1.80;;;;;;;;;;4937378;29;20027;-75
2021/11/13 03:49:25;;;;;;;3.08;2.03;;;;;;;;;;4937019;29;20032;-74
2021/11/13 03:51:51;;;;;;;2.45;1.70;;;;;;;;;;4937892;29;20037;-74
2021/11/13 03:54:17;;;;;;;4.03;2.22;;;;;;;;;;4937478;29;20031;-75
2021/11/13 03:56:44;;;;;;;3.47;2.10;;;;;;;;;;4921685;29;20512;-75
2021/11/13 03:59:10;;;;;;;2.97;2.67;;;;;;;;;;4918444;29;20488;-75
2021/11/13 04:01:36;;;;;;;2.83;2.40;;;;;;;;;;4918412;29;20143;-75
2021/11/13 04:04:03;;;;;;;3.13;2.00;;;;;;;;;;4918985;29;20036;-75
2021/11/13 04:06:29;;;;;;;4.00;3.25;;;;;;;;;;4935768;29;20104;-74
2021/11/13 04:08:56;;;;;;;4.78;2.30;;;;;;;;;;4926508;29;20019;-74
2021/11/13 04:11:22;;;;;;;4.03;2.42;;;;;;;;;;4937350;29;20574;-75
2021/11/13 04:13:48;;;;;;;4.78;3.58;;;;;;;;;;4925271;29;20028;-75
2021/11/13 04:16:14;;;;;;;6.43;4.10;;;;;;;;;;4918127;29;20027;-74
2021/11/13 04:18:40;;;;;;;3.88;2.30;;;;;;;;;;4918014;29;20020;-74
2021/11/13 04:21:06;;;;;;;6.43;2.60;;;;;;;;;;4926083;29;20028;-74
2021/11/13 04:23:33;;;;;;;3.45;2.08;;;;;;;;;;4937048;29;20028;-75
2021/11/13 04:25:59;;;;;;;5.20;2.67;;;;;;;;;;4936880;29;20027;-75
2021/11/13 04:28:25;;;;;;;4.32;2.50;;;;;;;;;;4936878;29;20031;-75
2021/11/13 04:30:51;;;;;;;4.93;2.28;;;;;;;;;;4936295;29;20079;-75
2021/11/13 04:33:17;;;;;;;4.97;2.15;;;;;;;;;;4936165;29;20083;-75
2021/11/13 04:35:48;;;;;;;3.35;2.30;;;;;;;;;;4935903;29;20150;-74
2021/11/13 04:38:15;;;;;;;4.50;2.30;;;;;;;;;;4936779;29;20026;-75
2021/11/13 04:40:41;;;;;;;3.50;2.13;;;;;;;;;;4935040;29;20028;-74
2021/11/13 04:43:07;;;;;;;4.43;2.72;;;;;;;;;;4908656;29;20463;-75
2021/11/13 04:45:34;;;;;;;3.63;1.88;;;;;;;;;;4936576;29;20074;-75
2021/11/13 04:48:00;;;;;;;4.10;2.60;;;;;;;;;;4925399;29;20396;-75
2021/11/13 04:50:27;;;;;;;4.80;2.10;;;;;;;;;;4918861;29;20068;-73
2021/11/13 04:52:54;;;;;;;3.58;2.10;;;;;;;;;;4936251;29;20023;-74
2021/11/13 04:55:20;;;;;;;5.65;2.33;;;;;;;;;;4928746;29;20408;-75
2021/11/13 04:57:46;;;;;;;4.07;2.13;;;;;;;;;;4917471;29;20032;-75
2021/11/13 05:00:14;;;;;;;4.13;2.17;;;;;;;;;;4926528;29;20024;-75
2021/11/13 05:02:40;;;;;;;5.50;2.17;;;;;;;;;;4919066;29;20035;-75
2021/11/13 05:05:07;;;;;;;5.53;2.42;;;;;;;;;;4936472;29;20475;-74
2021/11/13 05:07:33;;;;;;;4.88;2.58;;;;;;;;;;4936403;29;20039;-76
2021/11/13 05:10:00;;;;;;;4.43;2.60;;;;;;;;;;4928974;29;20071;-75
2021/11/13 05:12:26;;;;;;;3.67;2.15;;;;;;;;;;4930945;29;20479;-76
2021/11/13 05:14:52;;;;;;;3.72;2.25;;;;;;;;;;4934807;29;20107;-76
2021/11/13 05:17:18;;;;;;;4.47;2.45;;;;;;;;;;4917100;29;20020;-75
2021/11/13 05:19:44;;;;;;;5.03;2.67;;;;;;;;;;4926909;29;20034;-75
2021/11/13 05:22:11;;;;;;;3.40;2.97;;;;;;;;;;4935923;29;20020;-74
2021/11/13 05:24:37;;;;;;;3.17;2.25;;;;;;;;;;4931565;29;20032;-75
2021/11/13 05:27:03;;;;;;;4.25;2.53;;;;;;;;;;4924186;29;20032;-75
2021/11/13 05:29:29;;;;;;;6.15;3.08;;;;;;;;;;4924239;29;20035;-76
2021/11/13 05:31:55;;;;;;;5.20;2.55;;;;;;;;;;4935708;29;20046;-74
2021/11/13 05:34:22;;;;;;;4.57;2.53;;;;;;;;;;4935609;29;20043;-74
2021/11/13 05:36:48;;;;;;;3.63;2.70;;;;;;;;;;4933799;29;20030;-75
2021/11/13 05:39:14;;;;;;;5.72;3.00;;;;;;;;;;4932187;29;20083;-75
2021/11/13 05:41:41;;;;;;;5.45;2.70;;;;;;;;;;4936434;29;20023;-74
2021/11/13 05:44:07;;;;;;;5.55;2.80;;;;;;;;;;4935568;29;20509;-74
2021/11/13 05:46:33;;;;;;;5.20;3.17;;;;;;;;;;4935745;29;20035;-74
2021/11/13 05:48:59;;;;;;;5.97;2.83;;;;;;;;;;4905337;29;20399;-74
2021/11/13 05:51:25;;;;;;;3.60;2.92;;;;;;;;;;4935249;29;20031;-74
2021/11/13 05:53:51;;;;;;;4.18;2.80;;;;;;;;;;4931138;29;20563;-74
2021/11/13 05:56:17;;;;;;;4.30;3.25;;;;;;;;;;4926230;29;20054;-74
2021/11/13 05:58:43;;;;;;;5.63;2.78;;;;;;;;;;4916472;29;20083;-74
2021/11/13 06:01:09;;;;;;;8.50;3.28;;;;;;;;;;4914865;29;20030;-75
2021/11/13 06:03:36;;;;;;;5.65;3.08;;;;;;;;;;4934864;29;20027;-75
2021/11/13 06:06:02;;;;;;;9.10;3.17;;;;;;;;;;4936160;29;20039;-75
2021/11/13 06:08:28;;;;;;;4.85;3.17;;;;;;;;;;4935413;29;20427;-74
2021/11/13 06:10:54;;;;;;;38.33;4.65;;;;;;;;;;4924300;29;20024;-74
2021/11/13 06:13:20;;;;;;;7.45;3.75;;;;;;;;;;4941197;29;20035;-73
2021/11/13 06:15:46;;;;;;;7.20;4.22;;;;;;;;;;4933627;29;20051;-74
2021/11/13 06:18:13;;;;;;;4.63;3.05;;;;;;;;;;4931238;29;20063;-74
2021/11/13 06:20:39;;;;;;;6.95;2.88;;;;;;;;;;4941295;29;20414;-74
2021/11/13 06:23:05;;;;;;;12.27;3.10;;;;;;;;;;4941277;29;20024;-75
2021/11/13 06:25:31;;;;;;;4.50;2.10;;;;;;;;;;4924330;29;20032;-75
2021/11/13 06:27:57;;;;;;;4.18;2.65;;;;;;;;;;4929987;29;20076;-74
2021/11/13 06:30:28;;;;;;;4.78;2.42;;;;;;;;;;4926737;29;20039;-74
2021/11/13 06:32:54;;;;;;;8.00;4.15;;;;;;;;;;4934349;29;20483;-74
2021/11/13 06:35:20;;;;;;;5.15;2.92;;;;;;;;;;4941343;29;20040;-74
2021/11/13 06:37:46;;;;;;;5.45;2.22;;;;;;;;;;4941423;29;20382;-74
2021/11/13 06:40:13;;;;;;;5.53;2.63;;;;;;;;;;4941610;29;20099;-74
2021/11/13 06:42:39;;;;;;;7.38;3.38;;;;;;;;;;4937053;29;20028;-74
2021/11/13 06:45:06;;;;;;;6.95;2.10;;;;;;;;;;4927640;29;20027;-75
2021/11/13 06:47:32;;;;;;;4.07;1.92;;;;;;;;;;4923845;29;20052;-74
2021/11/13 06:49:58;;;;;;;6.43;2.60;;;;;;;;;;4941328;29;20031;-75
2021/11/13 06:52:25;;;;;;;3.55;2.10;;;;;;;;;;4941304;29;20035;-75
2021/11/13 06:54:51;;;;;;;3.22;2.30;;;;;;;;;;4939729;29;20023;-74
2021/11/13 06:57:17;;;;;;;8.93;2.42;;;;;;;;;;4930314;29;20055;-74
2021/11/13 06:59:43;;;;;;;4.45;1.90;;;;;;;;;;4941336;29;20023;-75
2021/11/13 07:02:09;;;;;;;5.35;2.25;;;;;;;;;;4931951;29;20031;-77
2021/11/13 07:04:35;;;;;;;9.80;2.28;;;;;;;;;;4941007;29;20107;-76
2021/11/13 07:07:02;;;;;;;4.95;2.20;;;;;;;;;;4941214;29;20028;-74
2021/11/13 07:09:28;;;;;;;5.47;2.15;;;;;;;;;;4928836;29;20036;-75
2021/11/13 07:11:54;;;;;;;5.32;2.28;;;;;;;;;;4940636;29;20167;-74
2021/11/13 07:14:20;;;;;;;3.97;2.20;;;;;;;;;;4938471;29;20038;-75
2021/11/13 07:16:46;;;;;;;4.80;2.50;;;;;;;;;;4924042;29;20439;-75
2021/11/13 07:19:12;;;;;;;5.25;2.55;;;;;;;;;;4941223;29;20494;-74
2021/11/13 07:21:39;;;;;;;6.80;2.33;;;;;;;;;;4941064;29;20493;-75
2021/11/13 07:24:06;;;;;;;7.32;2.20;;;;;;;;;;4937090;29;20031;-74
2021/11/13 07:26:32;;;;;;;5.30;2.25;;;;;;;;;;4927796;29;20555;-75
2021/11/13 07:29:04;;;;;;;4.57;2.00;;;;;;;;;;4936703;29;20036;-75
2021/11/13 07:31:30;;;;;;;6.25;2.03;;;;;;;;;;4937964;29;20475;-75
2021/11/13 07:33:56;;;;;;;6.95;2.20;;;;;;;;;;4937822;29;20114;-74
2021/11/13 07:36:23;;;;;;;4.22;2.53;;;;;;;;;;4937879;29;20098;-74
2021/11/13 07:38:49;;;;;;;3.50;1.70;;;;;;;;;;4937853;29;20028;-75
2021/11/13 07:41:17;;;;;;;5.50;2.08;;;;;;;;;;4937803;29;20111;-75
2021/11/13 07:43:43;;;;;;;5.38;2.10;;;;;;;;;;4937569;29;20051;-74
2021/11/13 07:46:09;;;;;;;5.68;2.13;;;;;;;;;;4918723;29;20075;-74
2021/11/13 07:48:35;;;;;;;9.90;2.42;;;;;;;;;;4918722;29;20032;-74
2021/11/13 07:51:03;;;;;;;4.43;2.05;;;;;;;;;;4918843;29;20032;-75
2021/11/13 07:53:29;;;;;;;4.20;2.13;;;;;;;;;;4930030;29;20027;-75
2021/11/13 07:55:55;;;;;;;4.28;1.90;;;;;;;;;;4937089;29;20048;-76
2021/11/13 07:58:22;;;;;;;6.93;2.22;;;;;;;;;;4937021;29;20039;-75
2021/11/13 08:00:49;;;;;;;5.93;2.20;;;;;;;;;;4937692;29;20032;-74
2021/11/13 08:03:15;;;;;;;8.00;2.88;;;;;;;;;;4937426;29;20020;-74
2021/11/13 08:05:41;;;;;;;6.78;2.13;;;;;;;;;;4937171;29;20043;-75
2021/11/13 08:08:07;;;;;;;6.10;2.35;;;;;;;;;;4936840;29;20102;-74
2021/11/13 08:10:40;;;;;;;7.60;2.30;;;;;;;;;;4937252;29;20179;-75
2021/11/13 08:13:07;;;;;;;5.80;2.42;;;;;;;;;;4937333;29;20035;-74
2021/11/13 08:15:33;;;;;;;7.47;3.42;;;;;;;;;;4937140;29;20032;-74
2021/11/13 08:17:59;;;;;;;6.43;3.03;;;;;;;;;;4936925;29;20024;-75
2021/11/13 08:20:25;;;;;;;7.10;2.50;;;;;;;;;;4937160;29;20028;-74
2021/11/13 08:22:51;;;;;;;6.05;2.70;;;;;;;;;;4937100;29;20075;-74
2021/11/13 08:25:18;;;;;;;7.05;3.75;;;;;;;;;;4918856;29;20027;-74
2021/11/13 08:27:44;;;;;;;4.88;2.92;;;;;;;;;;4936786;29;20102;-76
2021/11/13 08:30:12;;;;;;;8.82;3.17;;;;;;;;;;4937251;29;20032;-74
2021/11/13 08:32:38;;;;;;;6.30;2.70;;;;;;;;;;4937064;29;20398;-76
2021/11/13 08:35:05;;;;;;;4.40;3.42;;;;;;;;;;4934605;29;20119;-74
2021/11/13 08:37:31;;;;;;;5.60;2.55;;;;;;;;;;4936997;29;20535;-74
2021/11/13 08:39:58;;;;;;;8.85;4.05;;;;;;;;;;4937344;29;20039;-74
2021/11/13 08:42:24;;;;;;;5.85;4.22;;;;;;;;;;4937874;29;20024;-75
2021/11/13 08:44:51;;;;;;;9.32;4.43;;;;;;;;;;4938030;29;20491;-75
2021/11/13 08:47:17;;;;;;;7.55;3.72;;;;;;;;;;4938476;29;20023;-74
2021/11/13 08:49:45;;;;;;;9.43;3.40;;;;;;;;;;4936571;29;20479;-74
2021/11/13 08:52:12;;;;;;;9.73;3.45;;;;;;;;;;4936902;29;20062;-74
2021/11/13 08:54:39;;;;;;;9.13;4.15;;;;;;;;;;4936457;29;20031;-75
2021/11/13 08:57:05;;;;;;;8.45;4.40;;;;;;;;;;4936397;29;20051;-75
2021/11/13 08:59:31;;;;;;;8.63;3.83;;;;;;;;;;4936444;29;20035;-74
2021/11/13 09:01:58;;;;;;;9.82;4.35;;;;;;;;;;4936412;29;20031;-74
2021/11/13 09:04:25;;;;;;;8.35;4.22;;;;;;;;;;4936262;29;20055;-75
2021/11/13 09:06:51;;;;;;;11.20;5.00;;;;;;;;;;4936158;29;20035;-74
2021/11/13 09:09:17;;;;;;;8.82;4.10;;;;;;;;;;4936165;29;20031;-74
2021/11/13 09:11:44;;;;;;;14.02;5.80;;;;;;;;;;4936168;29;20106;-75
2021/11/13 09:14:12;;;;;;;13.10;6.28;;;;;;;;;;4936589;29;20035;-76
2021/11/13 09:16:38;;;;;;;11.73;5.03;;;;;;;;;;4936131;29;20028;-75
2021/11/13 09:19:06;;;;;;;13.02;4.68;;;;;;;;;;4936011;29;20513;-74
2021/11/13 09:21:33;;;;;;;12.98;5.07;;;;;;;;;;4935952;29;20394;-74
2021/11/13 09:24:00;;;;;;;10.05;5.40;;;;;;;;;;4918772;29;20087;-74
2021/11/13 09:26:26;;;;;;;9.52;4.65;;;;;;;;;;4936744;29;20059;-76
2021/11/13 09:28:53;;;;;;;11.13;5.57;;;;;;;;;;4934953;29;20028;-75
2021/11/13 09:31:19;;;;;;;9.95;5.80;;;;;;;;;;4916810;29;20020;-76
2021/11/13 09:33:45;;;;;;;11.05;4.97;;;;;;;;;;4916767;29;20127;-74
2021/11/13 09:36:12;;;;;;;13.80;4.68;;;;;;;;;;4917194;29;20024;-76
2021/11/13 09:38:45;;;;;;;12.30;4.60;;;;;;;;;;4917224;29;20031;-75
2021/11/13 09:41:11;;;;;;;12.25;4.60;;;;;;;;;;4934264;29;20510;-75
2021/11/13 09:43:38;;;;;;;9.95;5.63;;;;;;;;;;4935731;29;20043;-75
2021/11/13 09:46:07;;;;;;;10.52;5.68;;;;;;;;;;4935002;29;20035;-75
2021/11/13 09:48:33;;;;;;;13.15;5.47;;;;;;;;;;4918611;29;20030;-75
2021/11/13 09:51:00;;;;;;;15.68;6.68;;;;;;;;;;4935365;29;20035;-74
2021/11/13 09:53:26;;;;;;;14.77;6.82;;;;;;;;;;4935290;29;20027;-76
2021/11/13 09:55:54;;;;;;;17.50;7.18;;;;;;;;;;4935334;29;20051;-75
2021/11/13 09:58:20;;;;;;;15.95;6.90;;;;;;;;;;4936090;29;20035;-75
2021/11/13 10:00:47;;;;;;;17.35;7.50;;;;;;;;;;4936203;29;20111;-76
2021/11/13 10:03:18;;;;;;;22.88;6.63;;;;;;;;;;4934978;29;20028;-75
2021/11/13 10:05:45;;;;;;;20.92;6.80;;;;;;;;;;4935474;29;20028;-76
2021/11/13 10:08:11;;;;;;;14.57;6.55;;;;;;;;;;4935521;29;20031;-75
2021/11/13 10:10:41;;;;;;;13.02;5.40;;;;;;;;;;4935661;29;20055;-76
2021/11/13 10:13:26;;;;;;;18.77;7.15;;;;;;;;;;4934523;29;20044;-75
2021/11/13 10:15:54;;;;;;;18.73;8.82;;;;;;;;;;4935327;29;20490;-75
2021/11/13 10:18:21;;;;;;;17.13;7.13;;;;;;;;;;4935457;29;20039;-76
2021/11/13 10:20:53;;;;;;;15.07;7.20;;;;;;;;;;4935227;29;20556;-75
2021/11/13 10:23:32;;;;;;;12.73;6.35;;;;;;;;;;4934794;29;20088;-75
2021/11/13 10:25:59;;;;;;;16.75;7.00;;;;;;;;;;4935216;29;20073;-75
2021/11/13 10:28:25;;;;;;;13.30;6.55;;;;;;;;;;4935135;29;20531;-75
2021/11/13 10:31:04;;;;;;;11.77;5.28;;;;;;;;;;4935038;29;20115;-75
2021/11/13 10:33:34;;;;;;;9.38;4.78;;;;;;;;;;4934774;29;20082;-75
2021/11/13 10:36:00;;;;;;;11.63;7.05;;;;;;;;;;4927496;29;20027;-74
2021/11/13 10:38:27;;;;;;;9.20;4.25;;;;;;;;;;4899272;29;20035;-75
2021/11/13 10:40:54;;;;;;;8.15;4.43;;;;;;;;;;4916123;29;20028;-74
2021/11/13 10:43:21;;;;;;;10.20;5.90;;;;;;;;;;4923952;29;20024;-74
2021/11/13 10:46:01;;;;;;;7.25;4.10;;;;;;;;;;4935174;29;20030;-74
2021/11/13 10:48:27;;;;;;;8.48;4.65;;;;;;;;;;4935099;29;20027;-74
2021/11/13 10:51:01;;;;;;;9.38;4.53;;;;;;;;;;4934975;29;20020;-75
2021/11/13 10:53:27;;;;;;;6.97;4.00;;;;;;;;;;4934757;29;20110;-74
2021/11/13 10:56:05;;;;;;;9.15;4.68;;;;;;;;;;4917644;29;20406;-75
2021/11/13 10:58:36;;;;;;;6.00;4.03;;;;;;;;;;4937888;29;20023;-78
2021/11/13 11:01:05;;;;;;;7.82;4.22;;;;;;;;;;4938807;29;20076;-75
2021/11/13 11:03:32;;;;;;;6.93;4.50;;;;;;;;;;4938579;29;20020;-74
2021/11/13 11:05:59;;;;;;;8.23;4.50;;;;;;;;;;4938352;29;20110;-75
2021/11/13 11:08:29;;;;;;;12.48;4.75;;;;;;;;;;4938528;29;20028;-75
2021/11/13 11:10:55;;;;;;;6.70;4.13;;;;;;;;;;4938485;29;20389;-75
2021/11/13 11:13:42;;;;;;;6.68;4.68;;;;;;;;;;4938217;29;20136;-76
2021/11/13 11:16:27;;;;;;;5.97;3.95;;;;;;;;;;4927766;29;20119;-74
2021/11/13 11:18:57;;;;;;;7.03;4.30;;;;;;;;;;4938166;29;20022;-75
2021/11/13 11:21:38;;;;;;;8.40;4.97;;;;;;;;;;4938154;29;20024;-74
2021/11/13 11:24:08;;;;;;;11.30;5.22;;;;;;;;;;4938253;29;20126;-74
2021/11/13 11:26:34;;;;;;;8.25;5.10;;;;;;;;;;4938123;29;20032;-75
2021/11/13 11:29:00;;;;;;;21.13;5.75;;;;;;;;;;4937456;29;20032;-75
2021/11/13 11:31:40;;;;;;;9.70;4.95;;;;;;;;;;4938599;29;20487;-75
2021/11/13 11:34:06;;;;;;;10.40;5.13;;;;;;;;;;4937951;29;20106;-75
2021/11/13 11:36:33;;;;;;;11.43;5.72;;;;;;;;;;4938096;29;20031;-75
2021/11/13 11:38:59;;;;;;;9.30;5.30;;;;;;;;;;4938323;29;20080;-75
2021/11/13 11:41:25;;;;;;;11.25;4.82;;;;;;;;;;4920866;29;20502;-76
2021/11/13 11:43:53;;;;;;;10.75;5.82;;;;;;;;;;4937935;29;20109;-75
2021/11/13 11:46:19;;;;;;;14.18;4.95;;;;;;;;;;4938211;29;20028;-76
2021/11/13 11:48:45;;;;;;;16.10;5.75;;;;;;;;;;4937224;29;20040;-75
2021/11/13 11:51:13;;;;;;;10.60;5.55;;;;;;;;;;4920294;29;20078;-75
2021/11/13 11:53:39;;;;;;;13.70;6.15;;;;;;;;;;4938017;29;20023;-75
2021/11/13 11:56:05;;;;;;;11.80;5.07;;;;;;;;;;4919851;29;20047;-74
2021/11/13 11:58:31;;;;;;;12.68;5.40;;;;;;;;;;4937393;29;20031;-74
2021/11/13 12:00:59;;;;;;;18.02;5.82;;;;;;;;;;4937468;29;20498;-74
2021/11/13 12:03:34;;;;;;;10.15;5.60;;;;;;;;;;4937791;29;20030;-76
2021/11/13 12:06:01;;;;;;;13.00;5.95;;;;;;;;;;4923175;29;20368;-76
2021/11/13 12:08:28;;;;;;;15.07;5.93;;;;;;;;;;4944013;29;20067;-77
2021/11/13 12:10:55;;;;;;;9.88;6.50;;;;;;;;;;4946292;29;20106;-78
2021/11/13 12:13:31;;;;;;;27.35;7.65;;;;;;;;;;4945367;29;20095;-76
2021/11/13 12:16:03;;;;;;;13.80;6.65;;;;;;;;;;4946585;29;20150;-74
2021/11/13 12:18:30;;;;;;;11.32;5.70;;;;;;;;;;4947533;29;20020;-73
2021/11/13 12:21:05;;;;;;;10.77;5.82;;;;;;;;;;4946071;29;20047;-76
2021/11/13 12:23:32;;;;;;;15.05;7.22;;;;;;;;;;4946895;29;20051;-75
2021/11/13 12:26:05;;;;;;;11.75;5.78;;;;;;;;;;4947178;29;20471;-76
2021/11/13 12:28:32;;;;;;;11.82;6.13;;;;;;;;;;4947213;29;20024;-74
2021/11/13 12:31:08;;;;;;;13.93;7.30;;;;;;;;;;4945734;29;20467;-74
2021/11/13 12:33:34;;;;;;;12.65;6.18;;;;;;;;;;4946118;29;20023;-75
2021/11/13 12:36:00;;;;;;;11.65;6.80;;;;;;;;;;4947077;29;20036;-73
2021/11/13 12:38:35;;;;;;;17.38;6.57;;;;;;;;;;4929047;29;20550;-76
2021/11/13 12:41:20;;;;;;;15.35;8.50;;;;;;;;;;4945860;29;20031;-74
2021/11/13 12:46:33;;;;;;;12.25;6.32;;;;;;;;;;4945777;29;20099;-74
2021/11/13 12:49:23;;;;;;;9.38;5.80;;;;;;;;;;4946143;29;20038;-75
2021/11/13 12:51:52;;;;;;;11.02;7.35;;;;;;;;;;4916947;29;20095;-75
2021/11/13 12:54:24;;;;;;;13.10;7.40;;;;;;;;;;4945043;29;20027;-76
2021/11/13 12:56:56;;;;;;;14.18;7.25;;;;;;;;;;4944454;29;20081;-74
2021/11/13 12:59:23;;;;;;;11.88;6.38;;;;;;;;;;4945091;29;20024;-75
2021/11/13 13:01:51;;;;;;;10.18;6.20;;;;;;;;;;4945525;29;20111;-73
2021/11/13 13:04:17;;;;;;;12.02;5.57;;;;;;;;;;4946607;29;20039;-75
2021/11/13 13:06:47;;;;;;;9.75;5.55;;;;;;;;;;4929621;29;20059;-75
2021/11/13 13:09:15;;;;;;;10.18;5.25;;;;;;;;;;4947651;29;20471;-75
2021/11/13 13:11:54;;;;;;;10.23;5.03;;;;;;;;;;4948238;29;20079;-74
2021/11/13 13:14:21;;;;;;;8.73;3.78;;;;;;;;;;4942267;29;20036;-74
2021/11/13 13:16:48;;;;;;;6.57;4.03;;;;;;;;;;4941186;29;20034;-73
2021/11/13 13:19:14;;;;;;;9.55;3.97;;;;;;;;;;4943961;29;20056;-78
2021/11/13 13:21:41;;;;;;;9.23;4.15;;;;;;;;;;4942609;29;20539;-73
2021/11/13 13:24:14;;;;;;;6.47;3.70;;;;;;;;;;4943656;29;20024;-74
2021/11/13 13:26:41;;;;;;;12.48;4.32;;;;;;;;;;4942542;29;20040;-74
2021/11/13 13:29:11;;;;;;;11.90;4.22;;;;;;;;;;4942820;29;20043;-75
2021/11/13 13:31:37;;;;;;;12.70;4.45;;;;;;;;;;4924942;29;20494;-73
2021/11/13 13:34:03;;;;;;;7.32;3.25;;;;;;;;;;4940000;29;20027;-75
2021/11/13 13:36:29;;;;;;;10.35;4.82;;;;;;;;;;4922456;29;20495;-76
2021/11/13 13:38:56;;;;;;;7.80;4.10;;;;;;;;;;4941780;29;20027;-75
2021/11/13 13:41:24;;;;;;;10.82;4.32;;;;;;;;;;4941682;29;20020;-75
2021/11/13 13:43:51;;;;;;;8.02;3.72;;;;;;;;;;4941468;29;20028;-73
2021/11/13 13:46:29;;;;;;;12.32;4.18;;;;;;;;;;4943667;29;20526;-74
2021/11/13 13:48:59;;;;;;;9.05;3.22;;;;;;;;;;4943642;29;20028;-78
2021/11/13 13:51:33;;;;;;;6.82;3.13;;;;;;;;;;4924299;29;20103;-75
2021/11/13 13:54:03;;;;;;;8.20;3.17;;;;;;;;;;4942300;29;20087;-74
2021/11/13 13:56:41;;;;;;;9.30;2.72;;;;;;;;;;4941779;29;20054;-75
2021/11/13 13:59:08;;;;;;;6.53;2.67;;;;;;;;;;4941783;29;20028;-74
2021/11/13 14:01:36;;;;;;;7.57;2.83;;;;;;;;;;4943114;29;20015;-76
2021/11/13 14:04:11;;;;;;;12.55;2.85;;;;;;;;;;4942461;29;20031;-74
2021/11/13 14:06:37;;;;;;;6.05;2.95;;;;;;;;;;4942758;29;20035;-75
2021/11/13 14:09:05;;;;;;;7.38;2.80;;;;;;;;;;4942364;29;20031;-74
2021/11/13 14:11:31;;;;;;;6.30;3.03;;;;;;;;;;4927018;29;20023;-74
2021/11/13 14:13:58;;;;;;;5.72;2.47;;;;;;;;;;4938740;29;20086;-74
2021/11/13 14:16:29;;;;;;;6.22;3.10;;;;;;;;;;4937760;29;20538;-77
2021/11/13 14:18:56;;;;;;;5.38;3.28;;;;;;;;;;4939376;29;20032;-77
2021/11/13 14:21:24;;;;;;;10.70;5.05;;;;;;;;;;4941561;29;20111;-75
2021/11/13 14:23:50;;;;;;;9.75;3.50;;;;;;;;;;4939814;29;20060;-73
2021/11/13 14:26:19;;;;;;;8.35;5.05;;;;;;;;;;4942666;29;20032;-76
2021/11/13 14:28:46;;;;;;;10.43;5.35;;;;;;;;;;4922023;29;20372;-75
2021/11/13 14:31:26;;;;;;;11.23;4.82;;;;;;;;;;4937704;29;20039;-75
2021/11/13 14:33:57;;;;;;;8.57;6.95;;;;;;;;;;4932691;29;20028;-74
2021/11/13 14:36:34;;;;;;;11.43;7.68;;;;;;;;;;4939246;29;20059;-74
2021/11/13 14:39:01;;;;;;;13.38;8.18;;;;;;;;;;4939795;29;20036;-75
2021/11/13 14:41:28;;;;;;;46.97;22.65;;;;;;;;;;4939931;29;20031;-75
2021/11/13 14:43:54;;;;;;;89.45;43.78;;;;;;;;;;4940656;29;20035;-74
2021/11/13 14:46:22;;;;;;;12.38;8.02;;;;;;;;;;4939597;29;20028;-75